Time;durP1;ratioP1;P1;durP2;ratioP2;P2;SDS_P1;SDS_P2;PMS_P1;PMS_P2;Temp;Humidity;BMP_temperature;BMP_pressure;BME280_temperature;BME280_humidity;BME280_pressure;Samples;Min_cycle;Max_cycle;Signal;HPM_P1;HPM_P2
2023/04/05 00:08:22;;;;;;;5.53;3.72;;;0.90;99.90;;;;;;20755622;28;20037;-81
2023/04/05 00:18:24;;;;;;;6.55;4.13;;;0.80;99.90;;;;;;20774076;28;20108;-79
2023/04/05 00:28:25;;;;;;;7.72;4.38;;;0.50;99.90;;;;;;20770145;28;20145;-79
2023/04/05 00:38:26;;;;;;;7.13;4.28;;;0.10;99.90;;;;;;20773117;28;20030;-82
2023/04/05 00:48:28;;;;;;;8.43;4.55;;;0.30;99.90;;;;;;20755776;28;20395;-80
2023/04/05 00:58:29;;;;;;;7.90;4.45;;;0.60;99.90;;;;;;20686624;28;20034;-81
2023/04/05 01:09:01;;;;;;;13.27;4.43;;;0.70;99.90;;;;;;20765776;28;20041;-80
2023/04/05 01:19:02;;;;;;;8.25;4.40;;;0.40;99.90;;;;;;20704721;28;20066;-81
2023/04/05 01:29:22;;;;;;;12.93;4.80;;;0.20;99.90;;;;;;20693170;28;20033;-78
2023/04/05 01:39:24;;;;;;;7.63;3.90;;;0.40;99.90;;;;;;20643140;28;20031;-79
2023/04/05 01:49:25;;;;;;;9.02;4.25;;;0.50;99.90;;;;;;20647678;28;20054;-80
2023/04/05 01:59:26;;;;;;;7.60;5.13;;;0.70;99.90;;;;;;20649179;28;20098;-80
2023/04/05 02:09:27;;;;;;;13.35;5.70;;;0.50;99.90;;;;;;20791135;28;20037;-79
2023/04/05 02:19:39;;;;;;;7.50;4.57;;;0.10;99.90;;;;;;20793996;28;20030;-80
2023/04/05 02:29:40;;;;;;;9.45;4.88;;;-0.30;99.90;;;;;;20791694;28;20034;-79
2023/04/05 02:39:41;;;;;;;13.63;5.07;;;-0.10;99.90;;;;;;20770244;28;20033;-78
2023/04/05 02:49:42;;;;;;;12.32;5.15;;;0.10;99.90;;;;;;20785691;28;20077;-79
2023/04/05 02:59:44;;;;;;;12.02;5.80;;;0.10;99.90;;;;;;20746465;28;20026;-78
2023/04/05 03:09:45;;;;;;;11.93;5.45;;;-0.20;99.90;;;;;;20782511;28;20038;-78
2023/04/05 03:19:47;;;;;;;9.25;5.93;;;-0.10;99.90;;;;;;20781441;28;20093;-80
2023/04/05 03:29:54;;;;;;;12.80;6.00;;;-0.20;99.90;;;;;;20754811;28;20705;-79
2023/04/05 03:39:55;;;;;;;9.05;6.05;;;-0.20;99.90;;;;;;20785210;28;20395;-79
2023/04/05 03:49:56;;;;;;;10.27;6.00;;;-0.70;99.90;;;;;;20770202;28;20513;-77
2023/04/05 03:59:57;;;;;;;11.98;6.60;;;-0.80;99.90;;;;;;20782238;28;20029;-78
2023/04/05 04:10:05;;;;;;;10.65;5.80;;;-0.90;99.90;;;;;;20666814;28;20095;-77
2023/04/05 04:20:10;;;;;;;9.70;5.70;;;-1.00;99.90;;;;;;20696984;28;20659;-78
2023/04/05 04:30:21;;;;;;;12.82;6.03;;;-1.10;99.90;;;;;;20687525;28;20439;-78
2023/04/05 04:40:49;;;;;;;19.05;7.97;;;-1.50;99.90;;;;;;20772775;28;20033;-77
2023/04/05 04:51:01;;;;;;;13.48;5.72;;;-1.00;99.90;;;;;;20751749;28;20034;-77
2023/04/05 05:01:09;;;;;;;14.70;6.20;;;-0.90;99.90;;;;;;20696650;28;20683;-80
2023/04/05 05:11:10;;;;;;;14.13;5.75;;;-0.90;99.90;;;;;;20764002;23;20456;-79
2023/04/05 05:21:10;;;;;;;11.45;6.25;;;-0.60;99.90;;;;;;20671110;28;20049;-77
2023/04/05 05:31:13;;;;;;;8.65;5.75;;;-0.80;99.90;;;;;;20687722;28;20034;-77
2023/04/05 05:41:13;;;;;;;12.20;5.90;;;-1.00;99.90;;;;;;20678555;28;20034;-77
2023/04/05 05:51:14;;;;;;;10.18;6.13;;;-1.00;99.90;;;;;;20692329;28;20384;-77
2023/04/05 06:01:15;;;;;;;11.85;6.40;;;-0.40;99.90;;;;;;20693862;28;20454;-76
2023/04/05 06:11:20;;;;;;;14.48;6.05;;;0.00;99.90;;;;;;20692666;28;20401;-76
2023/04/05 06:21:21;;;;;;;17.80;8.23;;;0.10;99.90;;;;;;20700017;28;20030;-78
2023/04/05 06:31:33;;;;;;;14.95;7.47;;;1.00;99.90;;;;;;20691324;28;20038;-76
2023/04/05 06:41:34;;;;;;;13.95;7.47;;;1.00;99.90;;;;;;20754194;28;20440;-78
2023/04/05 06:51:35;;;;;;;12.35;6.93;;;1.30;99.90;;;;;;20756390;28;20034;-76
2023/04/05 07:01:36;;;;;;;30.63;8.30;;;2.50;99.90;;;;;;20753958;28;20034;-77
2023/04/05 07:11:38;;;;;;;19.50;7.53;;;3.20;99.90;;;;;;20757086;28;20042;-78
2023/04/05 07:21:39;;;;;;;13.77;7.05;;;3.70;99.90;;;;;;20752030;28;20161;-78
2023/04/05 07:31:40;;;;;;;9.82;5.93;;;4.10;99.90;;;;;;20754468;28;20038;-76
2023/04/05 07:41:41;;;;;;;10.13;5.53;;;5.00;99.90;;;;;;20690764;28;20076;-77
2023/04/05 07:51:42;;;;;;;;;;;5.40;99.90;;;;;;20677524;28;20511;-78
2023/04/05 08:01:43;;;;;;;7.95;5.07;;;6.00;99.90;;;;;;20698526;28;19913;-79
2023/04/05 08:11:43;;;;;;;;;;;6.60;99.90;;;;;;20793404;28;20412;-78
2023/04/05 08:21:44;;;;;;;9.43;4.38;;;7.00;99.90;;;;;;20804246;28;20011;-80
2023/04/05 08:31:45;;;;;;;13.43;6.87;;;6.90;99.90;;;;;;20785790;28;20689;-79
2023/04/05 08:41:59;;;;;;;9.93;4.50;;;8.20;99.60;;;;;;20740095;28;20039;-80
2023/04/05 08:52:02;;;;;;;7.47;4.72;;;8.50;97.30;;;;;;20730485;28;20041;-80
2023/04/05 09:02:15;;;;;;;13.90;4.75;;;8.70;95.80;;;;;;20750156;28;20064;-81
2023/04/05 09:12:17;;;;;;;11.73;4.63;;;9.50;94.60;;;;;;20806558;28;20034;-78
2023/04/05 09:22:18;;;;;;;9.93;4.72;;;9.60;93.20;;;;;;20799497;28;20165;-78
2023/04/05 09:32:24;;;;;;;5.87;3.60;;;9.90;93.40;;;;;;20793540;28;20026;-79
2023/04/05 09:42:25;;;;;;;7.10;3.63;;;10.20;92.80;;;;;;20767081;28;20030;-79
2023/04/05 09:52:31;;;;;;;5.60;3.67;;;10.60;92.00;;;;;;20767369;28;20118;-79
2023/04/05 10:02:36;;;;;;;6.75;3.90;;;10.70;91.20;;;;;;20754004;28;20034;-81
2023/04/05 10:12:40;;;;;;;5.15;3.20;;;11.00;90.80;;;;;;20686067;28;20038;-82
2023/04/05 10:22:50;;;;;;;5.80;3.40;;;12.10;90.50;;;;;;20684455;28;20042;-79
2023/04/05 10:33:19;;;;;;;7.22;3.47;;;11.80;88.80;;;;;;20666676;28;20053;-80
2023/04/05 10:43:22;;;;;;;5.88;3.75;;;12.20;88.70;;;;;;20687155;28;20059;-81
2023/04/05 10:53:25;;;;;;;16.80;7.95;;;12.20;88.50;;;;;;20674126;28;20034;-76
2023/04/05 11:03:48;;;;;;;5.80;3.60;;;12.90;87.80;;;;;;20705035;28;20030;-76
2023/04/05 11:13:56;;;;;;;12.93;4.35;;;12.80;85.10;;;;;;20772612;23;20112;-79
2023/04/05 11:24:11;;;;;;;4.63;3.08;;;14.20;83.90;;;;;;20765791;28;20554;-79
2023/04/05 11:34:12;;;;;;;7.85;3.33;;;15.20;84.40;;;;;;20765364;28;20034;-79
2023/04/05 11:44:14;;;;;;;7.87;3.93;;;15.20;82.70;;;;;;20768424;28;20033;-79
2023/04/05 11:54:28;;;;;;;5.40;3.22;;;13.50;82.30;;;;;;20750294;28;20510;-80
2023/04/05 12:04:28;;;;;;;5.05;3.22;;;15.70;80.20;;;;;;20780869;28;20124;-80
2023/04/05 12:14:31;;;;;;;6.20;3.00;;;14.40;83.70;;;;;;20819262;28;20533;-79
2023/04/05 12:24:32;;;;;;;4.32;3.17;;;14.20;83.10;;;;;;20819481;28;20353;-79
2023/04/05 12:34:35;;;;;;;8.83;4.33;;;12.90;80.30;;;;;;20759729;28;20069;-79
2023/04/05 12:44:36;;;;;;;5.40;3.72;;;13.10;82.20;;;;;;20736673;28;20435;-79
2023/04/05 12:54:37;;;;;;;9.13;3.83;;;14.70;81.50;;;;;;20757657;28;20026;-80
2023/04/05 13:04:39;;;;;;;6.80;3.45;;;15.40;78.10;;;;;;20782749;28;20072;-80
2023/04/05 13:14:41;;;;;;;51.38;15.45;;;16.30;77.50;;;;;;20839882;28;20084;-79
2023/04/05 13:24:42;;;;;;;19.03;6.43;;;15.70;76.00;;;;;;20759837;28;20025;-79
2023/04/05 13:34:43;;;;;;;4.33;2.93;;;14.30;77.30;;;;;;20799756;28;20315;-79
2023/04/05 13:44:43;;;;;;;5.30;3.17;;;14.10;78.00;;;;;;20852261;28;20468;-79
2023/04/05 13:54:44;;;;;;;4.50;3.37;;;14.20;81.00;;;;;;20834103;28;20033;-80
2023/04/05 14:04:45;;;;;;;4.47;3.17;;;14.70;78.20;;;;;;20804217;28;20034;-80
2023/04/05 14:14:46;;;;;;;5.57;3.53;;;15.50;77.30;;;;;;20747681;28;20480;-80
2023/04/05 14:24:47;;;;;;;5.97;3.33;;;14.00;78.10;;;;;;20744771;28;20030;-78
2023/04/05 14:34:48;;;;;;;4.80;3.37;;;15.50;77.90;;;;;;20805501;28;20029;-79
2023/04/05 14:44:49;;;;;;;10.73;4.97;;;14.40;79.60;;;;;;20827145;28;20033;-79
2023/04/05 14:54:50;;;;;;;7.23;3.67;;;13.30;79.40;;;;;;20762380;28;20026;-79
2023/04/05 15:04:50;;;;;;;8.03;4.33;;;13.60;83.30;;;;;;20752723;28;20104;-81
2023/04/05 15:14:53;;;;;;;6.33;4.03;;;12.70;80.20;;;;;;20779678;28;20030;-81
2023/04/05 15:24:54;;;;;;;9.60;5.35;;;12.50;82.50;;;;;;20752170;28;20034;-78
2023/04/05 15:34:56;;;;;;;7.80;3.90;;;12.10;83.00;;;;;;20762464;28;20030;-77
2023/04/05 15:44:57;;;;;;;7.13;4.72;;;12.30;83.40;;;;;;20750113;28;20046;-78
2023/04/05 15:54:58;;;;;;;8.53;5.10;;;11.90;83.90;;;;;;20777930;28;20480;-78
2023/04/05 16:04:59;;;;;;;14.97;5.93;;;11.20;85.90;;;;;;20761529;28;20034;-78
2023/04/05 16:15:00;;;;;;;11.17;5.83;;;10.80;87.80;;;;;;20848207;28;20057;-78
2023/04/05 16:25:00;;;;;;;8.97;5.20;;;10.60;88.70;;;;;;20820707;28;20087;-78
2023/04/05 16:35:01;;;;;;;12.30;6.07;;;10.30;89.30;;;;;;20818916;28;20069;-78
2023/04/05 16:45:03;;;;;;;25.20;7.30;;;10.10;90.10;;;;;;20744063;28;20038;-78
2023/04/05 16:55:05;;;;;;;24.40;7.53;;;10.20;90.40;;;;;;20745968;28;20068;-78
2023/04/05 17:05:06;;;;;;;;;;;10.20;90.50;;;;;;20762561;28;20726;-78
2023/04/05 17:15:08;;;;;;;11.48;5.25;;;10.10;90.50;;;;;;20746732;23;19922;-76
2023/04/05 17:25:09;;;;;;;9.98;5.07;;;10.00;90.90;;;;;;20724575;28;20127;-75
2023/04/05 17:35:10;;;;;;;9.87;5.27;;;9.90;91.60;;;;;;20723850;28;20084;-77
2023/04/05 17:45:12;;;;;;;8.80;5.60;;;9.60;92.10;;;;;;20737874;28;20033;-77
2023/04/05 17:55:12;;;;;;;10.30;5.28;;;9.30;92.80;;;;;;20780196;28;20060;-76
2023/04/05 18:05:13;;;;;;;11.40;4.73;;;9.10;93.00;;;;;;20746097;28;20137;-77
2023/04/05 18:15:15;;;;;;;9.10;4.40;;;8.80;94.20;;;;;;20758835;28;20539;-77
2023/04/05 18:25:16;;;;;;;8.25;4.65;;;8.30;96.40;;;;;;20767826;28;20116;-77
2023/04/05 18:35:17;;;;;;;9.40;4.97;;;7.70;98.60;;;;;;20753107;28;20124;-75
2023/04/05 18:45:18;;;;;;;11.30;5.97;;;7.10;99.90;;;;;;20753532;28;20125;-78
2023/04/05 18:55:19;;;;;;;8.57;5.07;;;6.40;99.90;;;;;;20752569;28;20457;-77
2023/04/05 19:05:20;;;;;;;7.78;4.35;;;6.30;99.90;;;;;;20752188;28;20026;-75
2023/04/05 19:15:21;;;;;;;8.48;4.53;;;5.40;99.90;;;;;;20751383;28;20030;-76
2023/04/05 19:25:21;;;;;;;;;;;4.80;99.90;;;;;;20755302;28;20064;-77
2023/04/05 19:35:22;;;;;;;8.68;5.40;;;4.40;99.90;;;;;;20733292;28;20384;-78
2023/04/05 19:45:25;;;;;;;8.85;4.90;;;3.70;99.90;;;;;;20743296;28;20052;-78
2023/04/05 19:55:37;;;;;;;9.98;4.40;;;3.50;99.90;;;;;;20729743;28;20034;-76
2023/04/05 20:05:41;;;;;;;11.73;5.50;;;3.80;99.90;;;;;;20725634;28;20388;-76
2023/04/05 20:15:44;;;;;;;8.45;4.70;;;3.90;99.90;;;;;;20746356;28;20034;-76
2023/04/05 20:25:45;;;;;;;11.10;4.65;;;3.90;99.90;;;;;;20761264;28;20038;-75
2023/04/05 20:35:46;;;;;;;11.90;5.38;;;2.90;99.90;;;;;;20744874;28;20038;-76
2023/04/05 20:45:47;;;;;;;9.88;5.47;;;2.50;99.90;;;;;;20725216;28;20042;-76
2023/04/05 20:55:49;;;;;;;9.25;4.95;;;2.40;99.90;;;;;;20725924;28;20026;-76
2023/04/05 21:05:50;;;;;;;14.05;5.03;;;2.40;99.90;;;;;;20743625;28;20034;-76
2023/04/05 21:15:53;;;;;;;20.05;5.45;;;2.10;99.90;;;;;;20742812;28;20037;-76
2023/04/05 21:25:57;;;;;;;7.30;4.90;;;2.30;99.90;;;;;;20742763;28;20037;-75
2023/04/05 21:35:58;;;;;;;8.50;4.43;;;2.30;99.90;;;;;;20741723;28;20038;-76
2023/04/05 21:45:59;;;;;;;9.30;5.43;;;2.20;99.90;;;;;;20723857;28;20038;-75
2023/04/05 21:56:00;;;;;;;8.25;4.18;;;2.10;99.90;;;;;;20736643;28;20030;-76
2023/04/05 22:06:01;;;;;;;6.43;4.50;;;2.10;99.90;;;;;;20746975;28;20030;-76
2023/04/05 22:16:02;;;;;;;7.78;4.65;;;2.10;99.90;;;;;;20740317;28;20077;-77
2023/04/05 22:26:02;;;;;;;10.07;5.07;;;2.10;99.90;;;;;;20699000;28;20116;-77
2023/04/05 22:36:04;;;;;;;8.27;4.03;;;2.20;99.90;;;;;;20750986;28;20030;-76
2023/04/05 22:46:05;;;;;;;10.85;5.38;;;1.80;99.90;;;;;;20753142;28;20034;-76
2023/04/05 22:56:06;;;;;;;10.35;5.72;;;1.70;99.90;;;;;;20752760;28;20113;-76
2023/04/05 23:06:06;;;;;;;18.00;5.30;;;1.50;99.90;;;;;;20733236;28;20100;-76
2023/04/05 23:16:07;;;;;;;7.68;4.82;;;1.40;99.90;;;;;;20750960;28;20025;-76
2023/04/05 23:26:08;;;;;;;12.85;5.95;;;1.00;99.90;;;;;;20750377;28;20114;-76
2023/04/05 23:36:09;;;;;;;9.20;5.70;;;0.90;99.90;;;;;;20750179;28;20022;-76
2023/04/05 23:46:10;;;;;;;8.32;5.18;;;0.80;99.90;;;;;;20748494;28;20480;-76
2023/04/05 23:56:11;;;;;;;8.52;4.30;;;0.60;99.90;;;;;;20747783;28;20040;-75
